sensor_id;sensor_type;location;lat;lon;timestamp;pressure;altitude;pressure_sealevel;temperature;humidity
30935;BME280;51033;42.648;23.292;2023-04-24T00:01:25;93592.38;;;11.58;47.83
30935;BME280;51033;42.648;23.292;2023-04-24T00:03:51;93599.41;;;11.63;48.26
30935;BME280;51033;42.648;23.292;2023-04-24T00:06:17;93603.56;;;11.43;47.35
30935;BME280;51033;42.648;23.292;2023-04-24T00:08:42;93587.09;;;11.20;47.64
30935;BME280;51033;42.648;23.292;2023-04-24T00:11:08;93607.72;;;11.61;47.91
30935;BME280;51033;42.648;23.292;2023-04-24T00:13:35;93576.47;;;11.41;47.84
30935;BME280;51033;42.648;23.292;2023-04-24T00:16:00;93585.84;;;11.47;47.77
30935;BME280;51033;42.648;23.292;2023-04-24T00:18:26;93571.72;;;11.55;47.36
30935;BME280;51033;42.648;23.292;2023-04-24T00:20:51;93569.53;;;11.57;47.38
30935;BME280;51033;42.648;23.292;2023-04-24T00:23:17;93578.22;;;11.66;47.48
30935;BME280;51033;42.648;23.292;2023-04-24T00:25:42;93564.78;;;11.63;46.85
30935;BME280;51033;42.648;23.292;2023-04-24T00:28:08;93583.81;;;11.73;46.94
30935;BME280;51033;42.648;23.292;2023-04-24T00:30:33;93575.19;;;11.47;47.28
30935;BME280;51033;42.648;23.292;2023-04-24T00:32:58;93574.53;;;11.50;47.43
30935;BME280;51033;42.648;23.292;2023-04-24T00:35:24;93592.19;;;11.63;47.92
30935;BME280;51033;42.648;23.292;2023-04-24T00:37:49;93592.38;;;11.58;47.74
30935;BME280;51033;42.648;23.292;2023-04-24T00:40:15;93578.56;;;11.35;47.65
30935;BME280;51033;42.648;23.292;2023-04-24T00:42:40;93574.00;;;11.36;47.39
30935;BME280;51033;42.648;23.292;2023-04-24T00:45:07;93578.59;;;11.56;46.96
30935;BME280;51033;42.648;23.292;2023-04-24T00:47:33;93580.94;;;11.57;48.50
30935;BME280;51033;42.648;23.292;2023-04-24T00:50:01;93590.63;;;11.62;47.36
30935;BME280;51033;42.648;23.292;2023-04-24T00:52:27;93574.91;;;11.40;47.46
30935;BME280;51033;42.648;23.292;2023-04-24T00:54:53;93585.63;;;11.60;47.43
30935;BME280;51033;42.648;23.292;2023-04-24T00:57:19;93566.25;;;11.51;46.91
30935;BME280;51033;42.648;23.292;2023-04-24T00:59:45;93564.97;;;11.57;46.62
30935;BME280;51033;42.648;23.292;2023-04-24T01:02:11;93572.03;;;11.74;47.18
30935;BME280;51033;42.648;23.292;2023-04-24T01:04:37;93582.69;;;11.74;46.99
30935;BME280;51033;42.648;23.292;2023-04-24T01:07:03;93575.38;;;11.71;49.27
30935;BME280;51033;42.648;23.292;2023-04-24T01:09:29;93576.66;;;11.65;49.05
30935;BME280;51033;42.648;23.292;2023-04-24T01:11:55;93541.31;;;11.56;50.12
30935;BME280;51033;42.648;23.292;2023-04-24T01:14:22;93551.91;;;11.65;50.91
30935;BME280;51033;42.648;23.292;2023-04-24T01:16:47;93507.19;;;11.29;51.16
30935;BME280;51033;42.648;23.292;2023-04-24T01:19:14;93549.22;;;11.65;52.78
30935;BME280;51033;42.648;23.292;2023-04-24T01:21:42;93534.66;;;11.41;53.96
30935;BME280;51033;42.648;23.292;2023-04-24T01:24:10;93551.06;;;11.52;53.59
30935;BME280;51033;42.648;23.292;2023-04-24T01:26:35;93551.66;;;11.57;54.15
30935;BME280;51033;42.648;23.292;2023-04-24T01:29:01;93539.47;;;11.69;53.79
30935;BME280;51033;42.648;23.292;2023-04-24T01:31:26;93542.38;;;11.64;54.25
30935;BME280;51033;42.648;23.292;2023-04-24T01:33:52;93552.63;;;11.53;54.50
30935;BME280;51033;42.648;23.292;2023-04-24T01:36:18;93559.78;;;11.61;53.85
30935;BME280;51033;42.648;23.292;2023-04-24T01:38:44;93559.88;;;11.44;54.14
30935;BME280;51033;42.648;23.292;2023-04-24T01:41:10;93550.41;;;11.55;53.49
30935;BME280;51033;42.648;23.292;2023-04-24T01:43:35;93532.31;;;11.40;53.79
30935;BME280;51033;42.648;23.292;2023-04-24T01:46:01;93546.56;;;11.44;53.93
30935;BME280;51033;42.648;23.292;2023-04-24T01:48:26;93507.50;;;11.06;54.88
30935;BME280;51033;42.648;23.292;2023-04-24T01:50:52;93531.00;;;11.04;55.34
30935;BME280;51033;42.648;23.292;2023-04-24T01:53:18;93530.34;;;11.07;55.46
30935;BME280;51033;42.648;23.292;2023-04-24T01:55:43;93546.22;;;11.25;55.47
30935;BME280;51033;42.648;23.292;2023-04-24T01:58:08;93545.66;;;11.10;55.28
30935;BME280;51033;42.648;23.292;2023-04-24T02:00:34;93522.91;;;10.92;55.04
30935;BME280;51033;42.648;23.292;2023-04-24T02:03:00;93543.84;;;11.02;55.69
30935;BME280;51033;42.648;23.292;2023-04-24T02:05:27;93527.03;;;10.81;56.18
30935;BME280;51033;42.648;23.292;2023-04-24T02:07:52;93528.72;;;10.86;55.75
30935;BME280;51033;42.648;23.292;2023-04-24T02:10:18;93535.50;;;10.83;55.14
30935;BME280;51033;42.648;23.292;2023-04-24T02:12:43;93544.69;;;10.86;55.64
30935;BME280;51033;42.648;23.292;2023-04-24T02:15:09;93523.19;;;10.70;54.86
30935;BME280;51033;42.648;23.292;2023-04-24T02:17:34;93552.22;;;10.84;54.73
30935;BME280;51033;42.648;23.292;2023-04-24T02:20:00;93545.22;;;10.79;54.70
30935;BME280;51033;42.648;23.292;2023-04-24T02:22:25;93536.50;;;10.70;54.32
30935;BME280;51033;42.648;23.292;2023-04-24T02:24:50;93533.09;;;10.61;55.13
30935;BME280;51033;42.648;23.292;2023-04-24T02:27:16;93526.25;;;10.43;55.56
30935;BME280;51033;42.648;23.292;2023-04-24T02:29:41;93531.06;;;10.58;55.43
30935;BME280;51033;42.648;23.292;2023-04-24T02:32:07;93519.22;;;10.47;55.31
30935;BME280;51033;42.648;23.292;2023-04-24T02:34:36;93502.22;;;10.39;55.04
30935;BME280;51033;42.648;23.292;2023-04-24T02:37:04;93499.09;;;10.28;55.15
30935;BME280;51033;42.648;23.292;2023-04-24T02:39:29;93533.63;;;10.37;55.22
30935;BME280;51033;42.648;23.292;2023-04-24T02:41:55;93528.47;;;10.41;55.11
30935;BME280;51033;42.648;23.292;2023-04-24T02:44:20;93510.50;;;10.38;54.35
30935;BME280;51033;42.648;23.292;2023-04-24T02:46:46;93517.50;;;10.42;55.07
30935;BME280;51033;42.648;23.292;2023-04-24T02:49:12;93495.97;;;10.26;54.92
30935;BME280;51033;42.648;23.292;2023-04-24T02:51:37;93513.16;;;10.38;55.19
30935;BME280;51033;42.648;23.292;2023-04-24T02:54:06;93499.25;;;10.23;54.93
30935;BME280;51033;42.648;23.292;2023-04-24T02:56:31;93495.97;;;10.26;54.50
30935;BME280;51033;42.648;23.292;2023-04-24T02:58:57;93514.53;;;10.44;54.72
30935;BME280;51033;42.648;23.292;2023-04-24T03:01:22;93502.22;;;10.30;54.74
30935;BME280;51033;42.648;23.292;2023-04-24T03:03:47;93515.00;;;10.46;55.12
30935;BME280;51033;42.648;23.292;2023-04-24T03:06:13;93520.59;;;10.53;54.65
30935;BME280;51033;42.648;23.292;2023-04-24T03:08:38;93527.56;;;10.37;55.15
30935;BME280;51033;42.648;23.292;2023-04-24T03:11:04;93516.94;;;10.37;54.63
30935;BME280;51033;42.648;23.292;2023-04-24T03:13:29;93515.53;;;10.13;55.33
30935;BME280;51033;42.648;23.292;2023-04-24T03:15:55;93515.72;;;10.08;55.31
30935;BME280;51033;42.648;23.292;2023-04-24T03:18:20;93532.56;;;10.12;55.66
30935;BME280;51033;42.648;23.292;2023-04-24T03:20:46;93534.13;;;10.13;55.49
30935;BME280;51033;42.648;23.292;2023-04-24T03:23:12;93530.22;;;10.19;55.38
30935;BME280;51033;42.648;23.292;2023-04-24T03:25:37;93536.66;;;10.10;55.75
30935;BME280;51033;42.648;23.292;2023-04-24T03:28:04;93521.03;;;10.08;55.29
30935;BME280;51033;42.648;23.292;2023-04-24T03:30:30;93535.72;;;10.06;55.56
30935;BME280;51033;42.648;23.292;2023-04-24T03:32:55;93510.59;;;9.86;55.74
30935;BME280;51033;42.648;23.292;2023-04-24T03:35:20;93538.84;;;10.16;55.52
30935;BME280;51033;42.648;23.292;2023-04-24T03:37:47;93515.44;;;10.01;55.61
30935;BME280;51033;42.648;23.292;2023-04-24T03:40:12;93507.31;;;9.89;55.97
30935;BME280;51033;42.648;23.292;2023-04-24T03:42:37;93507.47;;;9.93;56.46
30935;BME280;51033;42.648;23.292;2023-04-24T03:45:03;93513.88;;;10.00;56.42
30935;BME280;51033;42.648;23.292;2023-04-24T03:47:29;93496.53;;;9.94;56.38
30935;BME280;51033;42.648;23.292;2023-04-24T03:49:54;93521.00;;;10.25;56.27
30935;BME280;51033;42.648;23.292;2023-04-24T03:52:21;93509.00;;;10.11;55.95
30935;BME280;51033;42.648;23.292;2023-04-24T03:54:46;93531.63;;;10.25;56.21
30935;BME280;51033;42.648;23.292;2023-04-24T03:57:11;93533.19;;;10.26;56.20
30935;BME280;51033;42.648;23.292;2023-04-24T03:59:37;93534.56;;;10.32;54.73
30935;BME280;51033;42.648;23.292;2023-04-24T04:02:02;93533.75;;;10.49;54.56
30935;BME280;51033;42.648;23.292;2023-04-24T04:04:27;93524.56;;;10.38;54.69
30935;BME280;51033;42.648;23.292;2023-04-24T04:06:53;93523.31;;;10.44;55.15
30935;BME280;51033;42.648;23.292;2023-04-24T04:09:18;93517.19;;;10.44;54.31
30935;BME280;51033;42.648;23.292;2023-04-24T04:11:44;93521.81;;;10.64;53.01
30935;BME280;51033;42.648;23.292;2023-04-24T04:14:09;93522.47;;;10.61;54.23
30935;BME280;51033;42.648;23.292;2023-04-24T04:16:35;93510.53;;;10.67;53.34
30935;BME280;51033;42.648;23.292;2023-04-24T04:19:01;93533.28;;;10.85;53.91
30935;BME280;51033;42.648;23.292;2023-04-24T04:21:28;93507.69;;;10.72;53.97
30935;BME280;51033;42.648;23.292;2023-04-24T04:23:53;93539.75;;;10.76;53.25
30935;BME280;51033;42.648;23.292;2023-04-24T04:26:19;93539.75;;;10.76;52.94
30935;BME280;51033;42.648;23.292;2023-04-24T04:28:46;93534.16;;;10.98;53.18
30935;BME280;51033;42.648;23.292;2023-04-24T04:31:13;93517.59;;;10.92;52.97
30935;BME280;51033;42.648;23.292;2023-04-24T04:33:38;93527.41;;;11.00;52.39
30935;BME280;51033;42.648;23.292;2023-04-24T04:36:04;93532.69;;;11.09;50.98
30935;BME280;51033;42.648;23.292;2023-04-24T04:38:30;93530.75;;;11.18;50.80
30935;BME280;51033;42.648;23.292;2023-04-24T04:40:55;93538.56;;;11.23;50.30
30935;BME280;51033;42.648;23.292;2023-04-24T04:43:24;93537.53;;;11.07;50.64
30935;BME280;51033;42.648;23.292;2023-04-24T04:45:50;93568.81;;;11.18;50.56
30935;BME280;51033;42.648;23.292;2023-04-24T04:48:16;93561.91;;;11.17;50.92
30935;BME280;51033;42.648;23.292;2023-04-24T04:50:43;93564.56;;;11.17;50.37
30935;BME280;51033;42.648;23.292;2023-04-24T04:53:11;93521.75;;;11.02;50.24
30935;BME280;51033;42.648;23.292;2023-04-24T04:55:37;93558.00;;;11.15;50.95
30935;BME280;51033;42.648;23.292;2023-04-24T04:58:03;93565.97;;;11.24;50.89
30935;BME280;51033;42.648;23.292;2023-04-24T05:00:28;93563.00;;;11.16;51.60
30935;BME280;51033;42.648;23.292;2023-04-24T05:02:58;93552.28;;;11.04;51.74
30935;BME280;51033;42.648;23.292;2023-04-24T05:05:24;93561.72;;;11.23;51.81
30935;BME280;51033;42.648;23.292;2023-04-24T05:07:49;93549.69;;;11.16;51.50
30935;BME280;51033;42.648;23.292;2023-04-24T05:10:15;93536.72;;;11.15;51.04
30935;BME280;51033;42.648;23.292;2023-04-24T05:12:40;93544.75;;;11.06;51.46
30935;BME280;51033;42.648;23.292;2023-04-24T05:15:06;93563.72;;;11.26;51.32
30935;BME280;51033;42.648;23.292;2023-04-24T05:17:31;93553.28;;;11.21;51.73
30935;BME280;51033;42.648;23.292;2023-04-24T05:19:57;93552.28;;;11.34;49.97
30935;BME280;51033;42.648;23.292;2023-04-24T05:22:22;93571.69;;;11.34;49.65
30935;BME280;51033;42.648;23.292;2023-04-24T05:24:49;93531.16;;;11.29;49.24
30935;BME280;51033;42.648;23.292;2023-04-24T05:27:14;93533.53;;;11.22;49.62
30935;BME280;51033;42.648;23.292;2023-04-24T05:29:40;93571.03;;;11.37;49.92
30935;BME280;51033;42.648;23.292;2023-04-24T05:32:06;93568.06;;;11.39;49.80
30935;BME280;51033;42.648;23.292;2023-04-24T05:34:31;93554.06;;;11.21;49.69
30935;BME280;51033;42.648;23.292;2023-04-24T05:36:57;93564.25;;;11.40;49.53
30935;BME280;51033;42.648;23.292;2023-04-24T05:39:23;93557.97;;;11.53;49.87
30935;BME280;51033;42.648;23.292;2023-04-24T05:41:50;93562.63;;;11.56;49.21
30935;BME280;51033;42.648;23.292;2023-04-24T05:44:15;93569.22;;;11.50;48.74
30935;BME280;51033;42.648;23.292;2023-04-24T05:46:41;93558.41;;;11.26;49.62
30935;BME280;51033;42.648;23.292;2023-04-24T05:49:06;93547.63;;;11.22;50.65
30935;BME280;51033;42.648;23.292;2023-04-24T05:51:32;93564.84;;;11.54;49.23
30935;BME280;51033;42.648;23.292;2023-04-24T05:53:57;93566.41;;;11.76;49.15
30935;BME280;51033;42.648;23.292;2023-04-24T05:56:23;93558.47;;;11.88;48.36
30935;BME280;51033;42.648;23.292;2023-04-24T05:58:48;93541.25;;;11.85;48.36
30935;BME280;51033;42.648;23.292;2023-04-24T06:01:14;93558.72;;;11.74;48.63
30935;BME280;51033;42.648;23.292;2023-04-24T06:03:40;93545.47;;;11.66;49.32
30935;BME280;51033;42.648;23.292;2023-04-24T06:06:06;93559.53;;;11.54;49.17
30935;BME280;51033;42.648;23.292;2023-04-24T06:08:32;93546.53;;;11.52;49.34
30935;BME280;51033;42.648;23.292;2023-04-24T06:10:58;93549.22;;;11.85;48.44
30935;BME280;51033;42.648;23.292;2023-04-24T06:13:23;93557.59;;;12.29;47.00
30935;BME280;51033;42.648;23.292;2023-04-24T06:15:48;93556.16;;;11.98;48.21
30935;BME280;51033;42.648;23.292;2023-04-24T06:18:14;93544.44;;;12.12;47.17
30935;BME280;51033;42.648;23.292;2023-04-24T06:20:41;93561.94;;;12.00;47.08
30935;BME280;51033;42.648;23.292;2023-04-24T06:23:07;93563.66;;;11.84;47.70
30935;BME280;51033;42.648;23.292;2023-04-24T06:25:32;93567.06;;;12.38;46.63
30935;BME280;51033;42.648;23.292;2023-04-24T06:27:58;93530.09;;;12.37;45.70
30935;BME280;51033;42.648;23.292;2023-04-24T06:30:23;93544.59;;;12.72;44.91
30935;BME280;51033;42.648;23.292;2023-04-24T06:32:50;93549.72;;;12.89;45.91
30935;BME280;51033;42.648;23.292;2023-04-24T06:35:16;93558.81;;;12.76;46.14
30935;BME280;51033;42.648;23.292;2023-04-24T06:37:42;93547.06;;;12.89;44.95
30935;BME280;51033;42.648;23.292;2023-04-24T06:40:08;93559.72;;;12.68;45.12
30935;BME280;51033;42.648;23.292;2023-04-24T06:42:33;93565.50;;;12.70;45.17
30935;BME280;51033;42.648;23.292;2023-04-24T06:45:00;93562.63;;;13.12;44.71
30935;BME280;51033;42.648;23.292;2023-04-24T06:47:25;93546.19;;;13.10;44.42
30935;BME280;51033;42.648;23.292;2023-04-24T06:49:51;93555.16;;;13.17;43.68
30935;BME280;51033;42.648;23.292;2023-04-24T06:52:18;93569.59;;;13.41;43.93
30935;BME280;51033;42.648;23.292;2023-04-24T06:54:43;93558.13;;;13.52;43.94
30935;BME280;51033;42.648;23.292;2023-04-24T06:57:09;93553.78;;;13.72;43.03
30935;BME280;51033;42.648;23.292;2023-04-24T06:59:35;93556.91;;;13.50;43.06
30935;BME280;51033;42.648;23.292;2023-04-24T07:02:01;93552.56;;;13.45;43.80
30935;BME280;51033;42.648;23.292;2023-04-24T07:04:26;93553.16;;;13.91;42.49
30935;BME280;51033;42.648;23.292;2023-04-24T07:06:52;93534.56;;;13.30;43.65
30935;BME280;51033;42.648;23.292;2023-04-24T07:09:21;93557.69;;;13.50;44.09
30935;BME280;51033;42.648;23.292;2023-04-24T07:11:47;93539.16;;;13.29;44.46
30935;BME280;51033;42.648;23.292;2023-04-24T07:14:13;93549.03;;;13.17;45.29
30935;BME280;51033;42.648;23.292;2023-04-24T07:16:39;93541.41;;;13.55;44.05
30935;BME280;51033;42.648;23.292;2023-04-24T07:19:04;93546.78;;;13.67;44.07
30935;BME280;51033;42.648;23.292;2023-04-24T07:21:30;93540.50;;;13.75;43.49
30935;BME280;51033;42.648;23.292;2023-04-24T07:23:57;93518.34;;;13.23;43.69
30935;BME280;51033;42.648;23.292;2023-04-24T07:26:23;93504.78;;;12.92;44.06
30935;BME280;51033;42.648;23.292;2023-04-24T07:28:48;93527.59;;;13.13;44.39
30935;BME280;51033;42.648;23.292;2023-04-24T07:31:14;93498.47;;;13.60;43.69
30935;BME280;51033;42.648;23.292;2023-04-24T07:33:39;93508.00;;;13.73;42.81
30935;BME280;51033;42.648;23.292;2023-04-24T07:36:05;93533.41;;;13.55;43.91
30935;BME280;51033;42.648;23.292;2023-04-24T07:38:30;93527.88;;;13.48;44.59
30935;BME280;51033;42.648;23.292;2023-04-24T07:40:56;93522.06;;;13.46;44.11
30935;BME280;51033;42.648;23.292;2023-04-24T07:43:22;93512.78;;;13.28;44.02
30935;BME280;51033;42.648;23.292;2023-04-24T07:45:49;93533.88;;;13.45;43.50
30935;BME280;51033;42.648;23.292;2023-04-24T07:48:15;93520.78;;;13.16;44.75
30935;BME280;51033;42.648;23.292;2023-04-24T07:50:43;93520.31;;;13.26;44.35
30935;BME280;51033;42.648;23.292;2023-04-24T07:53:08;93507.47;;;13.56;43.43
30935;BME280;51033;42.648;23.292;2023-04-24T07:55:34;93508.31;;;13.32;44.16
30935;BME280;51033;42.648;23.292;2023-04-24T07:58:00;93509.53;;;13.74;43.79
30935;BME280;51033;42.648;23.292;2023-04-24T08:00:25;93504.66;;;13.77;43.65
30935;BME280;51033;42.648;23.292;2023-04-24T08:02:50;93514.81;;;13.71;43.57
30935;BME280;51033;42.648;23.292;2023-04-24T08:05:16;93506.38;;;13.45;45.00
30935;BME280;51033;42.648;23.292;2023-04-24T08:07:41;93518.53;;;13.30;44.62
30935;BME280;51033;42.648;23.292;2023-04-24T08:10:09;93512.03;;;13.03;44.77
30935;BME280;51033;42.648;23.292;2023-04-24T08:12:36;93506.91;;;13.10;45.03
30935;BME280;51033;42.648;23.292;2023-04-24T08:15:02;93492.03;;;12.85;45.22
30935;BME280;51033;42.648;23.292;2023-04-24T08:17:27;93512.44;;;13.17;44.17
30935;BME280;51033;42.648;23.292;2023-04-24T08:19:53;93515.25;;;13.09;44.86
30935;BME280;51033;42.648;23.292;2023-04-24T08:22:24;93497.53;;;13.16;44.50
30935;BME280;51033;42.648;23.292;2023-04-24T08:24:49;93509.75;;;13.82;44.00
30935;BME280;51033;42.648;23.292;2023-04-24T08:27:15;93502.88;;;14.24;43.46
30935;BME280;51033;42.648;23.292;2023-04-24T08:29:40;93502.81;;;13.93;43.58
30935;BME280;51033;42.648;23.292;2023-04-24T08:32:05;93490.00;;;13.58;44.41
30935;BME280;51033;42.648;23.292;2023-04-24T08:34:31;93499.91;;;13.58;43.80
30935;BME280;51033;42.648;23.292;2023-04-24T08:36:56;93499.31;;;13.77;44.07
30935;BME280;51033;42.648;23.292;2023-04-24T08:39:22;93505.50;;;13.93;43.30
30935;BME280;51033;42.648;23.292;2023-04-24T08:41:48;93491.97;;;14.01;43.67
30935;BME280;51033;42.648;23.292;2023-04-24T08:44:13;93477.94;;;13.77;42.83
30935;BME280;51033;42.648;23.292;2023-04-24T08:46:43;93476.88;;;13.93;43.12
30935;BME280;51033;42.648;23.292;2023-04-24T08:49:09;93479.13;;;14.07;42.53
30935;BME280;51033;42.648;23.292;2023-04-24T08:51:36;93462.63;;;14.05;42.53
30935;BME280;51033;42.648;23.292;2023-04-24T08:54:02;93476.81;;;13.78;43.27
30935;BME280;51033;42.648;23.292;2023-04-24T08:56:29;93461.09;;;14.19;42.71
30935;BME280;51033;42.648;23.292;2023-04-24T08:58:56;93477.44;;;13.87;43.45
30935;BME280;51033;42.648;23.292;2023-04-24T09:01:24;93469.34;;;13.99;43.80
30935;BME280;51033;42.648;23.292;2023-04-24T09:03:51;93432.41;;;13.89;42.99
30935;BME280;51033;42.648;23.292;2023-04-24T09:06:21;93461.97;;;13.80;43.01
30935;BME280;51033;42.648;23.292;2023-04-24T09:08:50;93447.03;;;14.07;42.46
30935;BME280;51033;42.648;23.292;2023-04-24T09:11:18;93443.03;;;13.85;42.90
30935;BME280;51033;42.648;23.292;2023-04-24T09:13:43;93459.53;;;14.03;43.22
30935;BME280;51033;42.648;23.292;2023-04-24T09:16:10;93441.59;;;14.19;43.55
30935;BME280;51033;42.648;23.292;2023-04-24T09:18:36;93449.63;;;14.19;43.36
30935;BME280;51033;42.648;23.292;2023-04-24T09:21:03;93450.59;;;14.42;43.32
30935;BME280;51033;42.648;23.292;2023-04-24T09:23:31;93430.31;;;14.73;45.68
30935;BME280;51033;42.648;23.292;2023-04-24T09:25:57;93419.00;;;14.64;42.24
30935;BME280;51033;42.648;23.292;2023-04-24T09:28:29;93436.25;;;14.82;44.27
30935;BME280;51033;42.648;23.292;2023-04-24T09:33:29;93411.34;;;14.46;42.18
30935;BME280;51033;42.648;23.292;2023-04-24T09:35:54;93421.69;;;14.64;42.94
30935;BME280;51033;42.648;23.292;2023-04-24T09:38:30;93431.00;;;14.85;42.19
30935;BME280;51033;42.648;23.292;2023-04-24T09:40:59;93422.72;;;14.59;41.68
30935;BME280;51033;42.648;23.292;2023-04-24T09:43:26;93410.28;;;14.19;42.77
30935;BME280;51033;42.648;23.292;2023-04-24T09:45:56;93422.56;;;14.36;42.36
30935;BME280;51033;42.648;23.292;2023-04-24T09:48:36;93419.13;;;14.86;43.05
30935;BME280;51033;42.648;23.292;2023-04-24T09:51:03;93423.38;;;15.41;42.58
30935;BME280;51033;42.648;23.292;2023-04-24T09:53:30;93415.94;;;15.51;41.36
30935;BME280;51033;42.648;23.292;2023-04-24T09:56:01;93401.13;;;15.57;40.85
30935;BME280;51033;42.648;23.292;2023-04-24T09:58:28;93418.19;;;15.68;40.52
30935;BME280;51033;42.648;23.292;2023-04-24T10:00:54;93416.88;;;15.23;41.11
30935;BME280;51033;42.648;23.292;2023-04-24T10:03:21;93410.56;;;15.51;40.15
30935;BME280;51033;42.648;23.292;2023-04-24T10:05:46;93401.50;;;15.97;39.25
30935;BME280;51033;42.648;23.292;2023-04-24T10:08:13;93382.59;;;15.48;40.09
30935;BME280;51033;42.648;23.292;2023-04-24T10:10:41;93390.91;;;15.62;44.22
30935;BME280;51033;42.648;23.292;2023-04-24T10:13:09;93379.31;;;15.39;41.64
30935;BME280;51033;42.648;23.292;2023-04-24T10:15:37;93365.72;;;15.67;40.04
30935;BME280;51033;42.648;23.292;2023-04-24T10:18:04;93371.56;;;15.72;39.63
30935;BME280;51033;42.648;23.292;2023-04-24T10:20:31;93361.44;;;15.85;39.23
30935;BME280;51033;42.648;23.292;2023-04-24T10:22:58;93357.69;;;15.89;40.92
30935;BME280;51033;42.648;23.292;2023-04-24T10:25:26;93351.22;;;16.13;37.80
30935;BME280;51033;42.648;23.292;2023-04-24T10:27:53;93362.81;;;16.21;39.12
30935;BME280;51033;42.648;23.292;2023-04-24T10:30:23;93353.94;;;16.17;38.62
30935;BME280;51033;42.648;23.292;2023-04-24T10:32:48;93338.25;;;15.96;39.45
30935;BME280;51033;42.648;23.292;2023-04-24T10:35:15;93352.03;;;15.95;38.59
30935;BME280;51033;42.648;23.292;2023-04-24T10:37:56;93339.38;;;15.95;39.28
30935;BME280;51033;42.648;23.292;2023-04-24T10:40:27;93342.44;;;15.94;38.39
30935;BME280;51033;42.648;23.292;2023-04-24T10:42:56;93341.78;;;16.00;38.74
30935;BME280;51033;42.648;23.292;2023-04-24T10:45:22;93330.19;;;16.19;37.94
30935;BME280;51033;42.648;23.292;2023-04-24T10:48:11;93342.28;;;16.55;36.96
30935;BME280;51033;42.648;23.292;2023-04-24T10:50:46;93332.41;;;16.62;37.11
30935;BME280;51033;42.648;23.292;2023-04-24T10:53:20;93310.81;;;16.52;37.64
30935;BME280;51033;42.648;23.292;2023-04-24T10:55:51;93331.81;;;17.02;37.94
30935;BME280;51033;42.648;23.292;2023-04-24T10:58:23;93328.09;;;17.10;36.26
30935;BME280;51033;42.648;23.292;2023-04-24T11:00:58;93324.81;;;16.94;35.73
30935;BME280;51033;42.648;23.292;2023-04-24T11:03:29;93317.28;;;17.07;36.23
30935;BME280;51033;42.648;23.292;2023-04-24T11:10:59;93327.50;;;17.57;34.91
30935;BME280;51033;42.648;23.292;2023-04-24T11:13:28;93311.88;;;17.70;34.64
30935;BME280;51033;42.648;23.292;2023-04-24T11:16:31;93315.53;;;17.92;36.08
30935;BME280;51033;42.648;23.292;2023-04-24T11:21:45;93336.66;;;17.90;34.21
30935;BME280;51033;42.648;23.292;2023-04-24T11:24:27;93357.44;;;17.23;38.00
30935;BME280;51033;42.648;23.292;2023-04-24T11:29:24;93372.66;;;16.13;40.97
30935;BME280;51033;42.648;23.292;2023-04-24T11:32:15;93368.63;;;16.23;41.93
30935;BME280;51033;42.648;23.292;2023-04-24T11:34:45;93384.34;;;16.24;42.91
30935;BME280;51033;42.648;23.292;2023-04-24T11:37:11;93388.38;;;15.92;42.18
30935;BME280;51033;42.648;23.292;2023-04-24T11:39:37;93372.09;;;15.81;42.21
30935;BME280;51033;42.648;23.292;2023-04-24T11:42:03;93366.41;;;16.06;44.08
30935;BME280;51033;42.648;23.292;2023-04-24T11:44:29;93348.94;;;16.15;49.08
30935;BME280;51033;42.648;23.292;2023-04-24T11:46:56;93355.66;;;16.28;51.30
30935;BME280;51033;42.648;23.292;2023-04-24T11:49:22;93346.31;;;16.42;51.66
30935;BME280;51033;42.648;23.292;2023-04-24T11:51:47;93347.03;;;16.39;50.15
30935;BME280;51033;42.648;23.292;2023-04-24T11:54:13;93345.28;;;16.50;50.29
30935;BME280;51033;42.648;23.292;2023-04-24T11:56:38;93327.44;;;16.61;45.20
30935;BME280;51033;42.648;23.292;2023-04-24T11:59:04;93320.72;;;16.77;46.47
30935;BME280;51033;42.648;23.292;2023-04-24T12:01:29;93293.63;;;16.56;45.31
30935;BME280;51033;42.648;23.292;2023-04-24T12:04:07;93303.19;;;16.84;44.04
30935;BME280;51033;42.648;23.292;2023-04-24T12:06:32;93303.31;;;16.94;45.10
30935;BME280;51033;42.648;23.292;2023-04-24T12:08:58;93302.50;;;16.90;41.61
30935;BME280;51033;42.648;23.292;2023-04-24T12:11:23;93313.47;;;17.08;42.15
30935;BME280;51033;42.648;23.292;2023-04-24T12:13:49;93322.09;;;17.21;43.41
30935;BME280;51033;42.648;23.292;2023-04-24T12:16:14;93311.38;;;16.94;41.50
30935;BME280;51033;42.648;23.292;2023-04-24T12:18:43;93312.56;;;16.67;39.31
30935;BME280;51033;42.648;23.292;2023-04-24T12:21:22;93296.69;;;16.58;40.14
30935;BME280;51033;42.648;23.292;2023-04-24T12:23:49;93292.22;;;16.40;40.03
30935;BME280;51033;42.648;23.292;2023-04-24T12:26:17;93279.47;;;16.33;41.22
30935;BME280;51033;42.648;23.292;2023-04-24T12:28:47;93291.59;;;16.50;42.76
30935;BME280;51033;42.648;23.292;2023-04-24T12:31:13;93277.50;;;16.56;42.43
30935;BME280;51033;42.648;23.292;2023-04-24T12:33:38;93259.53;;;16.60;41.62
30935;BME280;51033;42.648;23.292;2023-04-24T12:36:04;93257.81;;;16.75;40.94
30935;BME280;51033;42.648;23.292;2023-04-24T12:38:31;93256.78;;;16.87;41.56
30935;BME280;51033;42.648;23.292;2023-04-24T12:41:10;93262.06;;;17.09;40.11
30935;BME280;51033;42.648;23.292;2023-04-24T12:43:37;93257.59;;;17.21;39.62
30935;BME280;51033;42.648;23.292;2023-04-24T12:46:03;93252.84;;;17.44;37.65
30935;BME280;51033;42.648;23.292;2023-04-24T12:48:29;93243.34;;;17.53;38.17
30935;BME280;51033;42.648;23.292;2023-04-24T12:50:57;93239.56;;;17.61;37.36
30935;BME280;51033;42.648;23.292;2023-04-24T12:53:25;93208.56;;;17.31;38.49
30935;BME280;51033;42.648;23.292;2023-04-24T12:55:51;93218.72;;;17.48;38.49
30935;BME280;51033;42.648;23.292;2023-04-24T12:58:21;93202.22;;;17.49;40.79
30935;BME280;51033;42.648;23.292;2023-04-24T13:00:47;93209.63;;;17.63;37.70